createdAt,value
2022-10-09T00:01:11.196Z,10.30
2022-10-09T00:03:41.586Z,10.30
2022-10-09T00:06:12.457Z,10.30
2022-10-09T00:08:43.156Z,10.30
2022-10-09T00:11:13.544Z,10.40
2022-10-09T00:13:41.633Z,10.40
2022-10-09T00:16:13.079Z,10.40
2022-10-09T00:18:41.557Z,10.30
2022-10-09T00:21:18.187Z,10.20
2022-10-09T00:23:46.222Z,10.10
2022-10-09T00:26:14.181Z,10.10
2022-10-09T00:28:42.312Z,10.10
2022-10-09T00:31:12.678Z,10.10
2022-10-09T00:33:40.887Z,10.10
2022-10-09T00:36:15.550Z,10.00
2022-10-09T00:38:43.740Z,10.00
2022-10-09T00:41:15.704Z,9.90
2022-10-09T00:43:47.180Z,9.90
2022-10-09T00:46:26.593Z,9.90
2022-10-09T00:49:02.451Z,9.90
2022-10-09T00:51:32.249Z,9.80
2022-10-09T00:54:00.753Z,9.80
2022-10-09T00:56:29.441Z,9.70
2022-10-09T00:58:59.485Z,9.80
2022-10-09T01:01:28.975Z,9.70
2022-10-09T01:03:57.008Z,9.60
2022-10-09T01:06:37.440Z,9.60
2022-10-09T01:09:09.239Z,9.60
2022-10-09T01:11:45.995Z,9.60
2022-10-09T01:14:23.846Z,9.60
2022-10-09T01:17:02.157Z,9.50
2022-10-09T01:19:45.618Z,9.50
2022-10-09T01:22:31.984Z,9.60
2022-10-09T01:25:05.467Z,9.50
2022-10-09T01:27:36.294Z,9.40
2022-10-09T01:30:08.343Z,9.30
2022-10-09T01:32:40.592Z,9.30
2022-10-09T01:35:12.396Z,9.20
2022-10-09T01:37:43.311Z,9.20
2022-10-09T01:40:13.597Z,9.20
2022-10-09T01:42:43.233Z,9.20
2022-10-09T01:45:11.797Z,9.10
2022-10-09T01:47:39.763Z,9.00
2022-10-09T01:50:15.407Z,9.00
2022-10-09T01:52:48.933Z,9.10
2022-10-09T01:55:31.407Z,9.00
2022-10-09T01:58:08.003Z,9.00
2022-10-09T02:00:38.883Z,9.10
2022-10-09T02:03:10.783Z,9.10
2022-10-09T02:05:41.129Z,8.90
2022-10-09T02:08:10.424Z,9.00
2022-10-09T02:10:40.460Z,9.00
2022-10-09T02:13:09.785Z,8.80
2022-10-09T02:15:42.881Z,8.80
2022-10-09T02:18:14.967Z,8.80
2022-10-09T02:20:48.520Z,8.80
2022-10-09T02:23:18.410Z,8.80
2022-10-09T02:25:46.676Z,8.80
2022-10-09T02:28:16.210Z,8.80
2022-10-09T02:30:52.022Z,8.80
2022-10-09T02:33:20.011Z,8.80
2022-10-09T02:35:48.401Z,8.80
2022-10-09T02:38:16.403Z,8.80
2022-10-09T02:40:44.326Z,8.70
2022-10-09T02:43:12.266Z,8.70
2022-10-09T02:45:41.562Z,8.70
2022-10-09T02:48:09.534Z,8.50
2022-10-09T02:50:37.601Z,8.50
2022-10-09T02:53:05.678Z,8.40
2022-10-09T02:55:33.614Z,8.40
2022-10-09T02:58:01.581Z,8.40
2022-10-09T03:00:29.544Z,8.40
2022-10-09T03:02:58.915Z,8.40
2022-10-09T03:05:26.881Z,8.40
2022-10-09T03:07:55.132Z,8.30
2022-10-09T03:10:23.442Z,8.20
2022-10-09T03:12:51.810Z,8.20
2022-10-09T03:15:19.801Z,8.20
2022-10-09T03:17:47.746Z,8.20
2022-10-09T03:20:17.230Z,8.30
2022-10-09T03:22:45.179Z,8.30
2022-10-09T03:25:13.121Z,8.30
2022-10-09T03:27:41.245Z,8.30
2022-10-09T03:30:10.553Z,8.30
2022-10-09T03:32:38.492Z,8.30
2022-10-09T03:35:07.185Z,8.30
2022-10-09T03:37:36.489Z,8.30
2022-10-09T03:40:04.816Z,8.20
2022-10-09T03:42:32.756Z,8.20
2022-10-09T03:45:04.402Z,8.10
2022-10-09T03:47:32.744Z,8.10
2022-10-09T03:50:00.673Z,8.20
2022-10-09T03:52:28.635Z,8.10
2022-10-09T03:54:57.998Z,8.10
2022-10-09T03:57:25.920Z,8.10
2022-10-09T03:59:53.825Z,8.10
2022-10-09T04:02:21.840Z,8.20
2022-10-09T04:04:49.784Z,8.10
2022-10-09T04:07:17.863Z,8.10
2022-10-09T04:09:45.850Z,8.00
2022-10-09T04:12:15.199Z,8.00
2022-10-09T04:14:43.163Z,8.00
2022-10-09T04:17:11.196Z,7.90
2022-10-09T04:19:39.196Z,7.90
2022-10-09T04:22:07.143Z,8.00
2022-10-09T04:24:35.120Z,8.00
2022-10-09T04:27:03.083Z,7.80
2022-10-09T04:29:32.378Z,7.70
2022-10-09T04:32:00.484Z,7.70
2022-10-09T04:34:28.721Z,7.60
2022-10-09T04:36:56.614Z,7.60
2022-10-09T04:39:24.584Z,7.60
2022-10-09T04:41:53.701Z,7.60
2022-10-09T04:44:21.756Z,7.40
2022-10-09T04:46:52.695Z,7.40
2022-10-09T04:49:20.646Z,7.40
2022-10-09T04:51:49.249Z,7.50
2022-10-09T04:54:17.166Z,7.30
2022-10-09T04:56:45.177Z,7.40
2022-10-09T04:59:13.124Z,7.40
2022-10-09T05:01:41.155Z,7.20
2022-10-09T05:04:10.869Z,7.20
2022-10-09T05:06:38.812Z,7.30
2022-10-09T05:09:06.871Z,7.30
2022-10-09T05:11:37.218Z,7.20
2022-10-09T05:14:08.510Z,7.10
2022-10-09T05:16:55.024Z,7.00
2022-10-09T05:19:25.808Z,7.00
2022-10-09T05:21:53.763Z,7.10
2022-10-09T05:24:21.938Z,7.00
2022-10-09T05:26:50.000Z,6.90
2022-10-09T05:29:17.964Z,7.00
2022-10-09T05:31:49.455Z,7.10
2022-10-09T05:34:17.808Z,7.20
2022-10-09T05:36:47.127Z,7.30
2022-10-09T05:39:15.044Z,7.40
2022-10-09T05:41:43.077Z,7.50
2022-10-09T05:44:11.634Z,7.60
2022-10-09T05:46:39.626Z,7.60
2022-10-09T05:49:07.569Z,7.70
2022-10-09T05:51:37.626Z,7.70
2022-10-09T05:54:08.011Z,7.70
2022-10-09T05:56:37.547Z,7.90
2022-10-09T05:59:07.073Z,8.00
2022-10-09T06:01:37.054Z,7.90
2022-10-09T06:04:06.625Z,8.10
2022-10-09T06:06:38.274Z,8.10
2022-10-09T06:09:08.317Z,8.10
2022-10-09T06:11:38.312Z,8.20
2022-10-09T06:14:09.947Z,8.30
2022-10-09T06:16:40.091Z,8.30
2022-10-09T06:19:11.180Z,8.40
2022-10-09T06:21:39.420Z,8.30
2022-10-09T06:24:08.793Z,8.40
2022-10-09T06:26:36.757Z,8.40
2022-10-09T06:29:04.952Z,8.60
2022-10-09T06:31:33.961Z,8.60
2022-10-09T06:34:03.280Z,8.70
2022-10-09T06:36:35.376Z,8.80
2022-10-09T06:39:06.177Z,9.20
2022-10-09T06:41:35.977Z,9.30
2022-10-09T06:44:17.091Z,9.30
2022-10-09T06:46:49.318Z,9.50
2022-10-09T06:49:17.360Z,10.00
2022-10-09T06:51:45.406Z,9.60
2022-10-09T06:54:15.232Z,9.70
2022-10-09T06:56:44.777Z,9.80
2022-10-09T06:59:13.561Z,9.90
2022-10-09T07:01:41.695Z,10.00
2022-10-09T07:04:13.299Z,10.20
2022-10-09T07:06:43.112Z,10.40
2022-10-09T07:09:12.653Z,10.40
2022-10-09T07:11:43.018Z,10.60
2022-10-09T07:14:15.720Z,10.40
2022-10-09T07:16:45.642Z,10.40
2022-10-09T07:19:14.354Z,10.50
2022-10-09T07:21:43.903Z,10.70
2022-10-09T07:24:13.131Z,10.90
2022-10-09T07:26:43.176Z,11.30
2022-10-09T07:29:14.926Z,11.60
2022-10-09T07:31:43.897Z,11.90
2022-10-09T07:34:11.990Z,11.70
2022-10-09T07:36:39.987Z,11.50
2022-10-09T07:39:08.052Z,11.80
2022-10-09T07:41:36.376Z,12.30
2022-10-09T07:44:04.517Z,12.70
2022-10-09T07:46:34.362Z,12.50
2022-10-09T07:49:02.610Z,12.90
2022-10-09T07:51:31.933Z,13.10
2022-10-09T07:54:02.023Z,13.10
2022-10-09T07:56:31.842Z,12.80
2022-10-09T07:59:01.538Z,12.80
2022-10-09T08:01:31.227Z,13.60
2022-10-09T08:04:02.176Z,13.90
2022-10-09T08:06:30.537Z,13.60
2022-10-09T08:09:00.160Z,14.00
2022-10-09T08:11:29.785Z,14.20
2022-10-09T08:13:58.425Z,13.80
2022-10-09T08:16:27.900Z,13.60
2022-10-09T08:18:57.540Z,14.20
2022-10-09T08:21:28.015Z,14.50
2022-10-09T08:23:57.413Z,15.10
2022-10-09T08:26:27.314Z,15.30
2022-10-09T08:28:57.218Z,15.10
2022-10-09T08:31:25.835Z,14.50
2022-10-09T08:33:54.866Z,14.10
2022-10-09T08:36:23.881Z,14.30
2022-10-09T08:38:53.952Z,14.30
2022-10-09T08:41:39.415Z,14.60
2022-10-09T08:44:18.835Z,14.80
2022-10-09T08:47:01.894Z,14.90
2022-10-09T08:49:38.534Z,15.10
2022-10-09T08:52:18.226Z,14.70
2022-10-09T08:54:47.670Z,14.40
2022-10-09T08:57:17.556Z,14.40
2022-10-09T08:59:46.279Z,14.50
2022-10-09T09:02:36.515Z,14.50
2022-10-09T09:05:16.554Z,14.70
2022-10-09T09:07:53.670Z,14.60
2022-10-09T09:10:35.268Z,15.00
2022-10-09T09:13:15.630Z,16.00
2022-10-09T09:15:48.758Z,15.90
2022-10-09T09:18:30.373Z,15.70
2022-10-09T09:21:05.514Z,15.70
2022-10-09T09:23:39.502Z,15.70
2022-10-09T09:26:15.716Z,15.70
2022-10-09T09:28:44.553Z,15.80
2022-10-09T09:31:18.293Z,15.70
2022-10-09T09:33:59.501Z,16.10
2022-10-09T09:36:33.028Z,15.60
2022-10-09T09:41:50.427Z,16.00
2022-10-09T09:44:19.899Z,16.00
2022-10-09T09:46:50.250Z,16.30
2022-10-09T09:49:19.680Z,16.40
2022-10-09T09:51:49.888Z,16.50
2022-10-09T09:54:20.192Z,16.20
2022-10-09T09:57:11.898Z,15.70
2022-10-09T09:59:44.712Z,15.20
2022-10-09T10:02:15.380Z,15.10
2022-10-09T10:04:54.055Z,15.10
2022-10-09T10:07:33.464Z,14.90
2022-10-09T10:10:07.220Z,15.10
2022-10-09T10:12:41.608Z,15.30
2022-10-09T10:15:21.927Z,15.40
2022-10-09T10:17:56.419Z,15.20
2022-10-09T10:20:24.842Z,14.90
2022-10-09T10:22:54.020Z,15.00
2022-10-09T10:25:25.628Z,15.20
2022-10-09T10:27:59.836Z,15.70
2022-10-09T10:30:28.050Z,15.40
2022-10-09T10:33:02.578Z,15.50
2022-10-09T10:35:33.787Z,15.90
2022-10-09T10:38:06.379Z,15.80
2022-10-09T10:40:37.798Z,16.10
2022-10-09T10:43:20.194Z,16.10
2022-10-09T10:45:59.835Z,16.30
2022-10-09T10:48:31.959Z,16.60
2022-10-09T10:51:10.687Z,16.50
2022-10-09T10:53:53.853Z,16.60
2022-10-09T10:56:31.817Z,17.00
2022-10-09T10:59:15.429Z,16.40
2022-10-09T11:01:47.763Z,16.20
2022-10-09T11:04:40.438Z,16.20
2022-10-09T11:07:20.066Z,15.50
2022-10-09T11:09:55.793Z,15.60
2022-10-09T11:12:47.884Z,15.90
2022-10-09T11:15:25.927Z,15.80
2022-10-09T11:18:03.513Z,15.30
2022-10-09T11:20:52.083Z,14.80
2022-10-09T11:23:26.710Z,15.00
2022-10-09T11:26:01.590Z,15.30
2022-10-09T11:28:36.359Z,15.20
2022-10-09T11:31:13.797Z,15.30
2022-10-09T11:33:46.348Z,15.30
2022-10-09T11:36:19.494Z,15.60
2022-10-09T11:38:51.462Z,15.70
2022-10-09T11:41:20.750Z,15.60
2022-10-09T11:44:14.030Z,15.70
2022-10-09T11:46:51.040Z,15.30
2022-10-09T11:49:24.434Z,15.50
2022-10-09T11:51:58.088Z,15.70
2022-10-09T11:54:28.624Z,16.10
2022-10-09T11:56:58.393Z,16.30
2022-10-09T11:59:30.530Z,15.90
2022-10-09T12:02:02.138Z,16.00
2022-10-09T12:04:50.466Z,16.10
2022-10-09T12:07:33.133Z,16.20
2022-10-09T12:10:05.929Z,16.80
2022-10-09T12:12:35.102Z,17.00
2022-10-09T12:15:13.268Z,16.80
2022-10-09T12:17:49.993Z,16.60
2022-10-09T12:20:21.446Z,16.60
2022-10-09T12:23:14.265Z,16.80
2022-10-09T12:25:45.055Z,16.50
2022-10-09T12:28:21.429Z,16.00
2022-10-09T12:30:51.578Z,15.80
2022-10-09T12:33:26.244Z,15.60
2022-10-09T12:36:04.785Z,15.60
2022-10-09T12:38:33.589Z,15.80
2022-10-09T12:41:05.908Z,15.80
2022-10-09T12:43:36.270Z,16.10
2022-10-09T12:46:04.855Z,15.70
2022-10-09T12:48:39.777Z,15.80
2022-10-09T12:51:16.713Z,15.70
2022-10-09T12:53:49.844Z,15.50
2022-10-09T12:56:23.857Z,15.40
2022-10-09T12:58:52.856Z,15.40
2022-10-09T13:01:21.738Z,15.60
2022-10-09T13:03:59.484Z,15.50
2022-10-09T13:06:34.329Z,15.70
2022-10-09T13:09:04.223Z,15.60
2022-10-09T13:11:34.968Z,15.50
2022-10-09T13:14:03.299Z,15.50
2022-10-09T13:16:41.676Z,15.20
2022-10-09T13:19:24.012Z,15.40
2022-10-09T13:22:06.635Z,15.40
2022-10-09T13:24:35.757Z,15.30
2022-10-09T13:27:05.399Z,15.20
2022-10-09T13:29:33.431Z,14.90
2022-10-09T13:32:02.887Z,15.00
2022-10-09T13:34:32.452Z,15.20
2022-10-09T13:37:00.442Z,15.10
2022-10-09T13:39:29.838Z,14.90
2022-10-09T13:41:59.453Z,14.80
2022-10-09T13:44:27.619Z,14.80
2022-10-09T13:46:55.684Z,14.50
2022-10-09T13:49:23.985Z,14.70
2022-10-09T13:51:53.466Z,14.50
2022-10-09T13:54:21.575Z,14.40
2022-10-09T13:56:49.761Z,14.40
2022-10-09T13:59:18.414Z,14.20
2022-10-09T14:01:46.854Z,14.40
2022-10-09T14:04:14.832Z,14.40
2022-10-09T14:06:43.112Z,14.40
2022-10-09T14:09:12.439Z,14.30
2022-10-09T14:11:40.470Z,14.30
2022-10-09T14:14:08.636Z,14.40
2022-10-09T14:16:36.724Z,14.30
2022-10-09T14:19:07.030Z,14.30
2022-10-09T14:21:35.310Z,14.10
2022-10-09T14:24:04.617Z,14.20
2022-10-09T14:26:34.605Z,14.40
2022-10-09T14:29:03.773Z,14.50
2022-10-09T14:31:32.062Z,14.40
2022-10-09T14:34:00.708Z,14.20
2022-10-09T14:36:29.204Z,14.10
2022-10-09T14:38:57.191Z,13.80
2022-10-09T14:41:25.128Z,13.80
2022-10-09T14:43:59.180Z,13.80
2022-10-09T14:46:27.998Z,13.80
2022-10-09T14:48:57.806Z,13.80
2022-10-09T14:51:27.747Z,13.70
2022-10-09T14:53:57.505Z,13.70
2022-10-09T14:56:26.133Z,13.70
2022-10-09T14:58:54.186Z,13.70
2022-10-09T15:01:23.851Z,13.60
2022-10-09T15:03:51.837Z,13.60
2022-10-09T15:06:23.789Z,13.80
2022-10-09T15:08:54.806Z,13.70
2022-10-09T15:11:23.180Z,13.50
2022-10-09T15:13:51.156Z,13.40
2022-10-09T15:16:20.738Z,13.40
2022-10-09T15:18:52.921Z,13.40
2022-10-09T15:21:22.308Z,13.40
2022-10-09T15:23:50.981Z,13.30
2022-10-09T15:26:19.148Z,13.20
2022-10-09T15:28:47.240Z,13.20
2022-10-09T15:31:22.117Z,13.50
2022-10-09T15:33:52.509Z,13.70
2022-10-09T15:36:20.649Z,13.80
2022-10-09T15:38:49.034Z,13.70
2022-10-09T15:41:24.933Z,13.60
2022-10-09T15:43:55.017Z,13.40
2022-10-09T15:46:23.471Z,13.30
2022-10-09T15:48:53.230Z,13.10
2022-10-09T15:51:21.672Z,13.10
2022-10-09T15:53:51.397Z,13.20
2022-10-09T15:56:21.342Z,13.10
2022-10-09T15:58:49.753Z,13.10
2022-10-09T16:01:19.363Z,13.00
2022-10-09T16:03:47.572Z,13.00
2022-10-09T16:06:19.703Z,12.90
2022-10-09T16:08:48.646Z,13.00
2022-10-09T16:11:21.788Z,13.00
2022-10-09T16:13:53.560Z,13.00
2022-10-09T16:16:23.660Z,12.90
2022-10-09T16:18:52.524Z,12.80
2022-10-09T16:21:24.150Z,12.70
2022-10-09T16:23:57.394Z,12.80
2022-10-09T16:26:27.826Z,12.70
2022-10-09T16:28:56.180Z,12.60
2022-10-09T16:31:26.552Z,12.50
2022-10-09T16:34:10.443Z,12.50
2022-10-09T16:36:39.870Z,12.40
2022-10-09T16:39:09.939Z,12.50
2022-10-09T16:41:41.804Z,12.40
2022-10-09T16:44:13.844Z,12.30
2022-10-09T16:46:41.941Z,12.20
2022-10-09T16:49:19.906Z,12.10
2022-10-09T16:51:52.101Z,12.10
2022-10-09T16:54:20.067Z,12.20
2022-10-09T16:56:48.091Z,12.10
2022-10-09T16:59:16.051Z,12.10
2022-10-09T17:01:46.020Z,12.10
2022-10-09T17:04:14.926Z,12.00
2022-10-09T17:06:43.826Z,11.90
2022-10-09T17:09:14.434Z,11.90
2022-10-09T17:11:43.385Z,11.80
2022-10-09T17:14:11.970Z,11.70
2022-10-09T17:16:42.685Z,11.80
2022-10-09T17:19:11.017Z,11.80
2022-10-09T17:21:39.000Z,11.80
2022-10-09T17:24:07.823Z,11.70
2022-10-09T17:26:37.324Z,11.70
2022-10-09T17:29:05.835Z,11.70
2022-10-09T17:31:34.305Z,11.80
2022-10-09T17:34:04.759Z,11.70
2022-10-09T17:36:34.398Z,11.60
2022-10-09T17:39:02.748Z,11.60
2022-10-09T17:41:31.239Z,11.60
2022-10-09T17:44:00.830Z,11.50
2022-10-09T17:46:30.384Z,11.40
2022-10-09T17:48:59.546Z,11.30
2022-10-09T17:51:29.908Z,11.40
2022-10-09T17:53:59.316Z,11.40
2022-10-09T17:56:27.488Z,11.40
2022-10-09T17:58:57.029Z,11.40
2022-10-09T18:01:26.932Z,11.30
2022-10-09T18:03:54.986Z,11.20
2022-10-09T18:06:24.147Z,11.20
2022-10-09T18:08:54.330Z,11.20
2022-10-09T18:11:25.996Z,11.20
2022-10-09T18:13:56.797Z,11.10
2022-10-09T18:16:35.306Z,11.10
2022-10-09T18:19:07.600Z,11.00
2022-10-09T18:21:36.478Z,10.90
2022-10-09T18:24:04.560Z,10.70
2022-10-09T18:26:32.565Z,10.70
2022-10-09T18:29:01.307Z,10.70
2022-10-09T18:31:31.120Z,10.60
2022-10-09T18:34:00.183Z,10.50
2022-10-09T18:36:33.419Z,10.60
2022-10-09T18:39:03.220Z,10.40
2022-10-09T18:41:31.437Z,10.40
2022-10-09T18:44:00.987Z,10.30
2022-10-09T18:46:35.139Z,10.20
2022-10-09T18:49:03.978Z,10.20
2022-10-09T18:51:32.710Z,10.10
2022-10-09T18:54:03.736Z,10.10
2022-10-09T18:56:33.478Z,10.20
2022-10-09T18:59:04.609Z,10.20
2022-10-09T19:01:34.092Z,10.30
2022-10-09T19:04:02.224Z,10.30
2022-10-09T19:06:30.326Z,10.20
2022-10-09T19:09:00.907Z,10.10
2022-10-09T19:11:29.824Z,10.00
2022-10-09T19:14:00.062Z,10.00
2022-10-09T19:16:28.548Z,9.90
2022-10-09T19:18:57.854Z,9.70
2022-10-09T19:21:26.128Z,9.60
2022-10-09T19:23:55.057Z,9.50
2022-10-09T19:26:23.964Z,9.50
2022-10-09T19:28:51.965Z,9.50
2022-10-09T19:31:21.590Z,9.50
2022-10-09T19:33:49.561Z,9.40
2022-10-09T19:36:19.259Z,9.50
2022-10-09T19:38:48.619Z,9.50
2022-10-09T19:41:17.002Z,9.50
2022-10-09T19:43:45.065Z,9.60
2022-10-09T19:46:17.156Z,9.60
2022-10-09T19:48:45.846Z,9.70
2022-10-09T19:51:16.421Z,9.60
2022-10-09T19:53:45.776Z,9.60
2022-10-09T19:56:15.405Z,9.60
2022-10-09T19:58:44.934Z,9.60
2022-10-09T20:01:14.168Z,9.60
2022-10-09T20:03:42.857Z,9.60
2022-10-09T20:06:11.390Z,9.60
2022-10-09T20:08:40.666Z,9.60
2022-10-09T20:11:11.514Z,9.60
2022-10-09T20:13:41.352Z,9.60
2022-10-09T20:16:11.466Z,9.60
2022-10-09T20:18:42.383Z,9.60
2022-10-09T20:21:11.043Z,9.60
2022-10-09T20:23:39.185Z,9.60
2022-10-09T20:26:10.278Z,9.60
2022-10-09T20:28:39.558Z,9.60
2022-10-09T20:31:09.397Z,9.50
2022-10-09T20:33:39.008Z,9.50
2022-10-09T20:36:08.188Z,9.50
2022-10-09T20:38:36.455Z,9.60
2022-10-09T20:41:06.674Z,9.50
2022-10-09T20:43:36.755Z,9.60
2022-10-09T20:46:07.459Z,9.50
2022-10-09T20:48:35.453Z,9.40
2022-10-09T20:51:03.433Z,9.40
2022-10-09T20:53:31.693Z,9.40
2022-10-09T20:56:03.910Z,9.40
2022-10-09T20:58:32.211Z,9.40
2022-10-09T21:01:01.738Z,9.40
2022-10-09T21:03:29.729Z,9.30
2022-10-09T21:05:57.703Z,9.30
2022-10-09T21:08:25.704Z,9.20
2022-10-09T21:10:53.697Z,9.00
2022-10-09T21:13:21.733Z,9.00
2022-10-09T21:15:50.839Z,9.00
2022-10-09T21:18:20.664Z,9.00
2022-10-09T21:20:49.857Z,8.90
2022-10-09T21:23:19.451Z,8.80
2022-10-09T21:25:49.307Z,8.70
2022-10-09T21:28:17.910Z,8.60
2022-10-09T21:30:45.968Z,8.70
2022-10-09T21:33:14.202Z,8.70
2022-10-09T21:35:45.329Z,8.60
2022-10-09T21:38:15.826Z,8.60
2022-10-09T21:40:44.037Z,8.60
2022-10-09T21:43:12.381Z,8.50
2022-10-09T21:45:41.276Z,8.50
2022-10-09T21:48:09.663Z,8.60
2022-10-09T21:50:37.905Z,8.60
2022-10-09T21:53:07.226Z,8.60
2022-10-09T21:55:35.367Z,8.40
2022-10-09T21:58:03.322Z,8.40
2022-10-09T22:00:31.317Z,8.40
2022-10-09T22:02:59.428Z,8.50
2022-10-09T22:05:27.427Z,8.50
2022-10-09T22:07:55.634Z,8.50
2022-10-09T22:10:25.240Z,8.50
2022-10-09T22:12:53.554Z,8.50
2022-10-09T22:15:21.780Z,8.50
2022-10-09T22:17:49.718Z,8.30
2022-10-09T22:20:17.937Z,8.20
2022-10-09T22:22:46.032Z,8.20
2022-10-09T22:25:13.988Z,8.30
2022-10-09T22:27:43.401Z,8.40
2022-10-09T22:30:12.681Z,8.50
2022-10-09T22:32:40.657Z,8.60
2022-10-09T22:35:09.334Z,8.60
2022-10-09T22:37:37.300Z,8.60
2022-10-09T22:40:05.764Z,8.70
2022-10-09T22:42:34.737Z,8.70
2022-10-09T22:45:04.175Z,8.80
2022-10-09T22:47:32.196Z,8.80
2022-10-09T22:50:00.304Z,8.90
2022-10-09T22:52:29.115Z,8.90
2022-10-09T22:54:57.101Z,8.90
2022-10-09T22:57:25.052Z,9.00
2022-10-09T22:59:52.990Z,9.00
2022-10-09T23:02:22.343Z,9.00
2022-10-09T23:04:50.263Z,9.10
2022-10-09T23:07:18.225Z,9.00
2022-10-09T23:09:46.297Z,8.90
2022-10-09T23:12:14.507Z,8.90
2022-10-09T23:14:42.449Z,9.00
2022-10-09T23:17:10.388Z,9.00
2022-10-09T23:19:40.016Z,8.90
2022-10-09T23:22:07.980Z,9.00
2022-10-09T23:24:35.966Z,8.90
2022-10-09T23:27:03.972Z,8.90
2022-10-09T23:29:31.999Z,8.90
2022-10-09T23:31:59.972Z,8.90
2022-10-09T23:34:27.953Z,8.90
2022-10-09T23:36:57.266Z,9.00
2022-10-09T23:39:25.189Z,9.00
2022-10-09T23:41:53.101Z,9.00
2022-10-09T23:44:22.324Z,9.10
2022-10-09T23:46:50.428Z,9.00
2022-10-09T23:49:18.471Z,9.20
2022-10-09T23:51:47.762Z,9.20
2022-10-09T23:54:17.089Z,9.10
2022-10-09T23:56:45.035Z,9.20
2022-10-09T23:59:13.525Z,9.20
